Time;durP1;ratioP1;P1;durP2;ratioP2;P2;SDS_P1;SDS_P2;PMS_P1;PMS_P2;Temp;Humidity;BMP_temperature;BMP_pressure;BME280_temperature;BME280_humidity;BME280_pressure;Samples;Min_cycle;Max_cycle;Signal;HPM_P1;HPM_P2
2023/05/12 15:58:21;;;;;;;5.65;3.00;;;;;;;;;;6763848;19;32549;-80
2023/05/12 16:00:46;;;;;;;7.22;2.97;;;;;;;;;;7360893;19;20019;-81
2023/05/12 16:03:11;;;;;;;6.57;2.83;;;;;;;;;;7370998;19;20062;-81
2023/05/12 16:05:37;;;;;;;6.70;2.73;;;;;;;;;;7367117;19;20017;-80
2023/05/12 16:08:02;;;;;;;4.60;2.60;;;;;;;;;;7373774;19;20018;-80
2023/05/12 16:10:27;;;;;;;4.13;2.30;;;;;;;;;;7370683;19;19999;-80
2023/05/12 16:12:52;;;;;;;4.93;2.80;;;;;;;;;;7375985;19;20232;-81
2023/05/12 16:15:18;;;;;;;5.90;2.60;;;;;;;;;;7369848;19;20096;-80
2023/05/12 16:17:43;;;;;;;7.05;2.42;;;;;;;;;;7371121;19;20768;-81
2023/05/12 16:20:09;;;;;;;4.88;2.40;;;;;;;;;;7372079;19;20007;-80
2023/05/12 16:22:34;;;;;;;6.55;2.13;;;;;;;;;;7367962;19;20033;-80
2023/05/12 16:24:59;;;;;;;8.23;2.80;;;;;;;;;;7372085;19;20028;-80
2023/05/12 16:27:24;;;;;;;7.25;2.65;;;;;;;;;;7374765;19;20289;-80
2023/05/12 16:29:52;;;;;;;8.30;2.88;;;;;;;;;;7371780;19;20014;-81
2023/05/12 16:32:17;;;;;;;6.78;2.90;;;;;;;;;;7366650;19;19999;-81
2023/05/12 16:34:42;;;;;;;6.50;2.40;;;;;;;;;;7371911;19;20474;-80
2023/05/12 16:37:08;;;;;;;8.10;2.80;;;;;;;;;;7373974;19;20523;-80
2023/05/12 16:39:34;;;;;;;7.82;3.28;;;;;;;;;;7371472;19;20126;-81
2023/05/12 16:41:59;;;;;;;7.18;3.70;;;;;;;;;;7372732;19;20001;-81
2023/05/12 16:44:24;;;;;;;6.53;3.03;;;;;;;;;;7373462;19;19995;-80
2023/05/12 16:46:50;;;;;;;7.47;3.80;;;;;;;;;;7367467;19;20019;-80
2023/05/12 16:49:15;;;;;;;6.65;3.60;;;;;;;;;;7371714;19;20003;-80
2023/05/12 16:51:40;;;;;;;7.00;3.10;;;;;;;;;;7372442;19;20028;-81
2023/05/12 16:54:05;;;;;;;9.30;3.60;;;;;;;;;;7370813;19;20117;-80
2023/05/12 16:56:31;;;;;;;6.72;3.20;;;;;;;;;;7371539;19;20379;-81
2023/05/12 16:58:56;;;;;;;9.43;3.77;;;;;;;;;;7373533;19;20057;-81
2023/05/12 17:01:21;;;;;;;7.50;3.57;;;;;;;;;;7372677;19;19999;-81
2023/05/12 17:03:46;;;;;;;5.50;3.20;;;;;;;;;;7365327;19;20021;-80
2023/05/12 17:06:11;;;;;;;9.27;3.58;;;;;;;;;;7368970;19;20247;-81
2023/05/12 17:08:37;;;;;;;10.40;3.25;;;;;;;;;;7368543;19;20582;-81
2023/05/12 17:11:03;;;;;;;7.85;4.15;;;;;;;;;;7370463;19;20400;-81
2023/05/12 17:13:29;;;;;;;9.55;3.58;;;;;;;;;;7372920;19;20010;-80
2023/05/12 17:15:55;;;;;;;6.00;3.03;;;;;;;;;;7370751;19;20462;-81
2023/05/12 17:18:20;;;;;;;5.90;2.63;;;;;;;;;;7372568;19;20437;-80
2023/05/12 17:20:45;;;;;;;6.17;3.23;;;;;;;;;;7370434;19;20007;-81
2023/05/12 17:23:11;;;;;;;4.60;2.57;;;;;;;;;;7371530;19;20259;-81
2023/05/12 17:25:36;;;;;;;9.50;3.15;;;;;;;;;;7368263;19;20266;-81
2023/05/12 17:28:03;;;;;;;6.78;3.40;;;;;;;;;;7370525;19;20115;-80
2023/05/12 17:30:28;;;;;;;5.93;2.95;;;;;;;;;;7371845;19;20027;-80
2023/05/12 17:32:53;;;;;;;5.87;3.00;;;;;;;;;;7361503;19;20464;-77
2023/05/12 17:35:18;;;;;;;7.83;3.53;;;;;;;;;;7354881;19;20259;-77
2023/05/12 17:37:44;;;;;;;8.40;3.25;;;;;;;;;;7356196;19;20006;-78
2023/05/12 17:40:12;;;;;;;7.03;3.20;;;;;;;;;;7360883;19;20605;-78
2023/05/12 17:42:38;;;;;;;7.22;3.40;;;;;;;;;;7361583;19;20251;-78
2023/05/12 17:45:03;;;;;;;7.35;3.50;;;;;;;;;;7364826;19;20059;-78
2023/05/12 17:47:29;;;;;;;7.68;4.35;;;;;;;;;;7360918;19;20440;-79
2023/05/12 17:49:54;;;;;;;7.38;4.20;;;;;;;;;;7357480;19;19998;-79
2023/05/12 17:52:19;;;;;;;8.68;4.40;;;;;;;;;;7358875;19;20018;-79
2023/05/12 17:54:44;;;;;;;7.03;4.30;;;;;;;;;;7351607;19;20010;-78
2023/05/12 17:57:09;;;;;;;6.93;3.80;;;;;;;;;;7349355;19;20276;-78
2023/05/12 17:59:35;;;;;;;6.65;4.07;;;;;;;;;;7354646;19;20716;-78
2023/05/12 18:02:01;;;;;;;12.50;4.60;;;;;;;;;;7359060;19;20632;-79
2023/05/12 18:04:26;;;;;;;8.32;4.18;;;;;;;;;;7362380;19;20019;-79
2023/05/12 18:06:51;;;;;;;8.00;4.40;;;;;;;;;;7352668;19;20364;-79
2023/05/12 18:09:16;;;;;;;10.57;4.18;;;;;;;;;;7359008;19;20235;-79
2023/05/12 18:11:42;;;;;;;9.35;4.28;;;;;;;;;;7359389;19;20547;-78
2023/05/12 18:14:08;;;;;;;10.18;4.60;;;;;;;;;;7369232;19;20008;-79
2023/05/12 18:16:33;;;;;;;8.80;4.65;;;;;;;;;;7370532;19;20397;-79
2023/05/12 18:18:58;;;;;;;9.23;5.33;;;;;;;;;;7367512;19;20526;-79
2023/05/12 18:21:23;;;;;;;9.07;5.50;;;;;;;;;;7366297;19;20259;-78
2023/05/12 18:23:49;;;;;;;9.30;5.13;;;;;;;;;;7354467;19;20010;-79
2023/05/12 18:26:14;;;;;;;9.77;5.97;;;;;;;;;;7349237;19;20006;-79
2023/05/12 18:28:39;;;;;;;9.50;5.20;;;;;;;;;;7360541;19;20034;-78
2023/05/12 18:31:04;;;;;;;11.68;5.53;;;;;;;;;;7368987;19;20248;-78
2023/05/12 18:33:30;;;;;;;13.80;5.63;;;;;;;;;;7349499;19;19997;-78
2023/05/12 18:35:55;;;;;;;9.35;5.03;;;;;;;;;;7362965;19;20768;-77
2023/05/12 18:38:20;;;;;;;7.60;5.13;;;;;;;;;;7344904;19;20059;-76
2023/05/12 18:40:45;;;;;;;10.07;4.82;;;;;;;;;;7350595;19;20769;-76
2023/05/12 18:43:10;;;;;;;8.30;4.63;;;;;;;;;;7355028;19;20050;-77
2023/05/12 18:45:36;;;;;;;10.70;4.60;;;;;;;;;;7367775;19;20437;-77
2023/05/12 18:48:01;;;;;;;9.32;5.05;;;;;;;;;;7362786;19;20235;-77
2023/05/12 18:50:26;;;;;;;8.10;4.50;;;;;;;;;;7364013;19;20026;-77
2023/05/12 18:52:52;;;;;;;7.50;4.47;;;;;;;;;;7365450;19;19994;-77
2023/05/12 18:55:17;;;;;;;8.47;4.93;;;;;;;;;;7361033;19;19999;-76
2023/05/12 18:57:42;;;;;;;7.13;4.27;;;;;;;;;;7364077;19;20254;-75
2023/05/12 19:00:08;;;;;;;6.87;3.93;;;;;;;;;;7335927;19;19998;-76
2023/05/12 19:02:34;;;;;;;9.18;4.50;;;;;;;;;;7366431;19;20235;-77
2023/05/12 19:04:59;;;;;;;7.50;4.68;;;;;;;;;;7362451;19;20328;-78
2023/05/12 19:07:24;;;;;;;9.57;4.40;;;;;;;;;;7360855;19;20033;-77
2023/05/12 19:09:49;;;;;;;6.60;4.03;;;;;;;;;;7355298;19;20007;-78
2023/05/12 19:12:14;;;;;;;8.37;4.47;;;;;;;;;;7357064;19;20431;-76
2023/05/12 19:14:41;;;;;;;11.00;4.35;;;;;;;;;;7359106;19;20262;-75
2023/05/12 19:17:07;;;;;;;7.95;4.20;;;;;;;;;;7350144;19;19995;-77
2023/05/12 19:19:32;;;;;;;7.00;4.10;;;;;;;;;;7354572;19;20322;-77
2023/05/12 19:21:57;;;;;;;8.07;4.55;;;;;;;;;;7358903;19;20235;-78
2023/05/12 19:24:24;;;;;;;8.02;5.15;;;;;;;;;;7343783;19;20400;-78
2023/05/12 19:29:24;;;;;;;11.20;4.90;;;;;;;;;;7283864;19;20050;-76
2023/05/12 19:31:51;;;;;;;8.23;4.32;;;;;;;;;;7337290;19;20325;-76
2023/05/12 19:34:16;;;;;;;10.77;5.25;;;;;;;;;;7348332;19;20042;-76
2023/05/12 19:36:42;;;;;;;14.95;5.05;;;;;;;;;;7358988;19;20007;-78
2023/05/12 19:39:07;;;;;;;9.13;4.63;;;;;;;;;;7360107;19;20007;-77
2023/05/12 19:41:32;;;;;;;8.33;4.67;;;;;;;;;;7365489;19;19994;-77
2023/05/12 19:43:57;;;;;;;9.33;4.83;;;;;;;;;;7362451;19;20792;-77
2023/05/12 19:46:23;;;;;;;7.38;4.70;;;;;;;;;;7356030;19;20300;-76
2023/05/12 19:48:49;;;;;;;7.70;4.72;;;;;;;;;;7354989;19;20001;-75
2023/05/12 19:51:15;;;;;;;7.18;4.53;;;;;;;;;;7358891;19;20006;-76
2023/05/12 19:53:41;;;;;;;6.65;4.32;;;;;;;;;;7356062;19;20787;-77
2023/05/12 19:56:07;;;;;;;8.50;4.68;;;;;;;;;;7353378;19;20014;-76
2023/05/12 19:58:32;;;;;;;6.93;4.47;;;;;;;;;;7318750;19;20006;-77
2023/05/12 20:00:57;;;;;;;8.75;5.00;;;;;;;;;;7337839;19;20075;-76
2023/05/12 20:03:22;;;;;;;7.15;4.93;;;;;;;;;;7345805;19;20006;-77
2023/05/12 20:05:47;;;;;;;7.68;4.47;;;;;;;;;;7345076;19;20041;-76
2023/05/12 20:08:13;;;;;;;9.73;4.30;;;;;;;;;;7353405;19;20040;-75
2023/05/12 20:10:38;;;;;;;8.25;4.70;;;;;;;;;;7357795;19;20640;-76
2023/05/12 20:13:03;;;;;;;7.60;4.47;;;;;;;;;;7343248;19;19999;-75
2023/05/12 20:15:29;;;;;;;6.85;4.13;;;;;;;;;;7342067;19;20227;-76
2023/05/12 20:17:54;;;;;;;10.65;4.22;;;;;;;;;;7354781;19;20025;-75
2023/05/12 20:20:20;;;;;;;7.53;4.20;;;;;;;;;;7359696;19;20341;-76
2023/05/12 20:22:45;;;;;;;8.50;5.00;;;;;;;;;;7348458;19;20522;-76
2023/05/12 20:25:14;;;;;;;9.23;4.53;;;;;;;;;;7356592;19;19999;-76
2023/05/12 20:27:40;;;;;;;6.88;4.10;;;;;;;;;;7359561;19;20482;-76
2023/05/12 20:30:06;;;;;;;9.57;4.18;;;;;;;;;;7355018;19;20370;-77
2023/05/12 20:32:31;;;;;;;9.27;5.43;;;;;;;;;;7358406;19;20102;-77
2023/05/12 20:34:56;;;;;;;6.97;4.53;;;;;;;;;;7346896;19;20146;-75
2023/05/12 20:37:21;;;;;;;10.65;5.13;;;;;;;;;;7352990;19;20387;-76
2023/05/12 20:39:47;;;;;;;8.07;4.57;;;;;;;;;;7353657;19;20380;-76
2023/05/12 20:42:12;;;;;;;7.87;4.70;;;;;;;;;;7355403;19;20432;-75
2023/05/12 20:44:38;;;;;;;8.57;4.95;;;;;;;;;;7351276;19;20375;-76
2023/05/12 20:47:03;;;;;;;7.45;4.20;;;;;;;;;;7360144;19;20088;-76
2023/05/12 20:49:28;;;;;;;10.02;4.43;;;;;;;;;;7353729;19;20006;-77
2023/05/12 20:51:53;;;;;;;8.07;4.37;;;;;;;;;;7356013;19;20545;-77
2023/05/12 20:54:18;;;;;;;9.10;4.70;;;;;;;;;;7351525;19;20688;-78
2023/05/12 20:56:43;;;;;;;6.77;4.50;;;;;;;;;;7361572;19;20074;-79
2023/05/12 20:59:09;;;;;;;8.90;4.55;;;;;;;;;;7349240;19;20296;-78
2023/05/12 21:01:34;;;;;;;6.60;3.85;;;;;;;;;;7333347;19;19999;-79
2023/05/12 21:03:59;;;;;;;8.97;4.40;;;;;;;;;;7355392;19;20134;-78
2023/05/12 21:06:25;;;;;;;8.20;4.80;;;;;;;;;;7354372;19;20656;-79
2023/05/12 21:08:50;;;;;;;7.53;4.30;;;;;;;;;;7358032;19;20082;-79
2023/05/12 21:11:16;;;;;;;9.32;5.10;;;;;;;;;;7363542;19;20458;-78
2023/05/12 21:13:42;;;;;;;11.73;4.70;;;;;;;;;;7360283;19;20551;-78
2023/05/12 21:16:07;;;;;;;11.57;4.35;;;;;;;;;;7359020;19;20451;-77
2023/05/12 21:18:32;;;;;;;10.63;4.77;;;;;;;;;;7330494;19;20037;-79
2023/05/12 21:20:57;;;;;;;9.43;4.20;;;;;;;;;;7356393;19;20052;-79
2023/05/12 21:23:22;;;;;;;7.77;4.00;;;;;;;;;;7353921;19;20235;-79
2023/05/12 21:25:51;;;;;;;11.90;4.30;;;;;;;;;;7355726;19;20247;-77
2023/05/12 21:28:16;;;;;;;8.00;4.43;;;;;;;;;;7355346;19;20064;-77
2023/05/12 21:30:41;;;;;;;8.15;4.15;;;;;;;;;;7358167;19;20055;-79
2023/05/12 21:33:06;;;;;;;7.40;4.25;;;;;;;;;;7355257;19;20001;-79
2023/05/12 21:35:31;;;;;;;7.40;4.40;;;;;;;;;;7344122;19;20352;-78
2023/05/12 21:37:57;;;;;;;10.07;4.70;;;;;;;;;;7361693;19;20006;-78
2023/05/12 21:40:22;;;;;;;6.55;4.25;;;;;;;;;;7353603;19;20810;-77
2023/05/12 21:42:47;;;;;;;7.80;4.22;;;;;;;;;;7362739;19;20055;-78
2023/05/12 21:45:12;;;;;;;9.50;4.50;;;;;;;;;;7356459;19;20031;-77
2023/05/12 21:47:38;;;;;;;6.90;4.37;;;;;;;;;;7361254;19;19999;-78
2023/05/12 21:50:03;;;;;;;7.60;4.38;;;;;;;;;;7365756;19;20858;-78
2023/05/12 21:52:28;;;;;;;9.63;4.32;;;;;;;;;;7369865;19;20418;-79
2023/05/12 21:54:53;;;;;;;14.63;4.35;;;;;;;;;;7369061;19;20025;-79
2023/05/12 21:57:19;;;;;;;7.25;4.82;;;;;;;;;;7355140;19;20037;-78
2023/05/12 21:59:44;;;;;;;6.30;4.30;;;;;;;;;;7364979;19;19995;-80
2023/05/12 22:02:09;;;;;;;8.10;4.23;;;;;;;;;;7360069;19;20044;-79
2023/05/12 22:04:34;;;;;;;7.88;4.28;;;;;;;;;;7366460;19;20589;-78
2023/05/12 22:07:00;;;;;;;7.13;3.70;;;;;;;;;;7371784;19;20280;-77
2023/05/12 22:09:25;;;;;;;8.02;4.10;;;;;;;;;;7368629;19;20266;-79
2023/05/12 22:11:51;;;;;;;8.77;4.67;;;;;;;;;;7372980;19;19995;-79
2023/05/12 22:14:16;;;;;;;6.82;4.40;;;;;;;;;;7368566;19;20463;-79
2023/05/12 22:16:41;;;;;;;8.57;4.50;;;;;;;;;;7373622;19;19994;-78
2023/05/12 22:19:06;;;;;;;7.57;4.00;;;;;;;;;;7363561;19;20382;-78
2023/05/12 22:21:32;;;;;;;6.50;4.20;;;;;;;;;;7364341;19;21925;-77
2023/05/12 22:23:57;;;;;;;9.55;3.88;;;;;;;;;;7370096;19;20013;-79
2023/05/12 22:26:22;;;;;;;7.60;4.07;;;;;;;;;;7370301;19;20003;-79
2023/05/12 22:28:47;;;;;;;8.95;4.20;;;;;;;;;;7366314;19;20026;-78
2023/05/12 22:31:13;;;;;;;9.57;4.57;;;;;;;;;;7373169;19;20134;-78
2023/05/12 22:33:38;;;;;;;10.15;4.45;;;;;;;;;;7369521;19;20527;-79
2023/05/12 22:36:03;;;;;;;7.15;4.10;;;;;;;;;;7367214;19;20371;-79
2023/05/12 22:38:28;;;;;;;9.25;4.00;;;;;;;;;;7364794;19;20040;-79
2023/05/12 22:40:53;;;;;;;9.50;4.80;;;;;;;;;;7370566;19;20114;-78
2023/05/12 22:43:19;;;;;;;9.27;4.83;;;;;;;;;;7371844;19;20235;-78
2023/05/12 22:45:47;;;;;;;6.70;4.37;;;;;;;;;;7372914;19;20770;-79
2023/05/12 22:48:12;;;;;;;10.20;4.90;;;;;;;;;;7370482;19;19998;-79
2023/05/12 22:50:38;;;;;;;7.33;4.53;;;;;;;;;;7369320;19;19995;-79
2023/05/12 22:53:03;;;;;;;10.50;4.70;;;;;;;;;;7371675;19;20247;-78
2023/05/12 22:55:29;;;;;;;8.05;5.53;;;;;;;;;;7367779;19;20265;-79
2023/05/12 22:57:58;;;;;;;10.23;4.70;;;;;;;;;;7371277;19;20010;-79
2023/05/12 23:00:24;;;;;;;7.72;4.80;;;;;;;;;;7347409;19;20033;-77
2023/05/12 23:02:49;;;;;;;8.82;4.75;;;;;;;;;;7369988;19;20014;-78
2023/05/12 23:05:14;;;;;;;8.50;5.10;;;;;;;;;;7361117;19;20447;-79
2023/05/12 23:07:39;;;;;;;8.30;4.93;;;;;;;;;;7362150;19;20032;-79
2023/05/12 23:10:05;;;;;;;9.20;4.90;;;;;;;;;;7362811;19;20316;-78
2023/05/12 23:12:30;;;;;;;7.30;4.57;;;;;;;;;;7365980;19;20280;-78
2023/05/12 23:14:56;;;;;;;15.20;4.80;;;;;;;;;;7365893;19;20006;-78
2023/05/12 23:17:21;;;;;;;11.15;5.70;;;;;;;;;;7365549;19;20532;-77
2023/05/12 23:19:46;;;;;;;7.57;5.03;;;;;;;;;;7365872;19;20317;-80
2023/05/12 23:22:11;;;;;;;7.83;5.60;;;;;;;;;;7371107;19;20252;-80
2023/05/12 23:24:37;;;;;;;7.83;4.73;;;;;;;;;;7362058;19;20070;-79
2023/05/12 23:27:02;;;;;;;9.60;4.97;;;;;;;;;;7370613;19;20235;-78
2023/05/12 23:29:27;;;;;;;8.80;5.18;;;;;;;;;;7358107;19;20002;-79
2023/05/12 23:31:52;;;;;;;8.37;5.40;;;;;;;;;;7364615;19;20416;-78
2023/05/12 23:34:17;;;;;;;9.45;5.28;;;;;;;;;;7368269;19;20254;-77
2023/05/12 23:36:43;;;;;;;12.07;5.25;;;;;;;;;;7366667;19;20031;-79
2023/05/12 23:39:08;;;;;;;8.70;5.13;;;;;;;;;;7365707;19;19995;-78
2023/05/12 23:41:35;;;;;;;11.38;5.45;;;;;;;;;;7353638;19;19991;-77
2023/05/12 23:44:00;;;;;;;8.25;5.30;;;;;;;;;;7370993;19;20007;-78
2023/05/12 23:46:25;;;;;;;8.95;5.30;;;;;;;;;;7366502;19;19998;-78
2023/05/12 23:48:51;;;;;;;9.75;5.22;;;;;;;;;;7368738;19;20089;-78
2023/05/12 23:51:16;;;;;;;10.73;5.13;;;;;;;;;;7366504;19;20070;-78
2023/05/12 23:53:41;;;;;;;10.13;4.43;;;;;;;;;;7362447;19;20824;-78
2023/05/12 23:56:06;;;;;;;9.87;5.33;;;;;;;;;;7368451;19;20259;-78
2023/05/12 23:58:31;;;;;;;9.35;5.15;;;;;;;;;;7368260;19;20270;-79
